Time;durP1;ratioP1;P1;durP2;ratioP2;P2;SDS_P1;SDS_P2;PMS_P1;PMS_P2;Temp;Humidity;BMP_temperature;BMP_pressure;BME280_temperature;BME280_humidity;BME280_pressure;Samples;Min_cycle;Max_cycle;Signal;HPM_P1;HPM_P2
2023/01/08 00:01:32;;;;;;;88.82;42.30;;;;;;;4.78;86.50;101206.20;1712246;82;21052;-90
2023/01/08 00:03:59;;;;;;;104.83;43.30;;;;;;;4.80;86.46;101203.27;1697890;82;21109;-91
2023/01/08 00:06:26;;;;;;;88.50;43.02;;;;;;;4.85;86.57;101195.70;1696372;84;21036;-90
2023/01/08 00:08:54;;;;;;;91.45;41.90;;;;;;;4.86;86.44;101195.80;1696496;84;21755;-92
2023/01/08 00:11:21;;;;;;;75.05;41.00;;;;;;;4.87;86.39;101185.84;1710470;83;21381;-91
2023/01/08 00:13:49;;;;;;;110.40;42.62;;;;;;;4.90;86.38;101191.66;1710234;83;21334;-91
2023/01/08 00:16:17;;;;;;;109.90;49.38;;;;;;;4.93;86.43;101189.61;1711123;83;21565;-91
2023/01/08 00:18:45;;;;;;;98.47;47.67;;;;;;;4.93;86.25;101188.30;1704325;83;21055;-91
2023/01/08 00:21:19;;;;;;;98.65;47.80;;;;;;;4.90;86.19;101183.83;1693207;84;21785;-91
2023/01/08 00:23:48;;;;;;;93.67;44.30;;;;;;;4.92;86.33;101180.89;1702992;82;21693;-91
2023/01/08 00:26:15;;;;;;;93.42;44.90;;;;;;;4.96;86.36;101173.72;1704505;83;21055;-91
2023/01/08 00:28:50;;;;;;;108.75;45.05;;;;;;;5.00;86.39;101173.48;1700194;83;21755;-92
2023/01/08 00:31:18;;;;;;;91.47;43.38;;;;;;;5.00;86.29;101174.37;1703739;83;22209;-90
2023/01/08 00:33:45;;;;;;;108.40;46.00;;;;;;;4.98;86.15;101176.41;1706665;83;21785;-91
2023/01/08 00:36:17;;;;;;;97.47;46.05;;;;;;;4.97;86.20;101174.60;1709553;83;22261;-90
2023/01/08 00:38:44;;;;;;;91.08;43.83;;;;;;;4.99;86.21;101183.41;1707407;83;21051;-90
2023/01/08 00:41:12;;;;;;;95.05;44.63;;;;;;;5.01;86.26;101177.48;1708074;82;21080;-90
2023/01/08 00:43:39;;;;;;;92.02;44.23;;;;;;;5.02;86.16;101175.77;1711998;83;21076;-90
2023/01/08 00:46:07;;;;;;;102.60;46.90;;;;;;;5.02;86.20;101173.16;1711669;82;21755;-91
2023/01/08 00:48:41;;;;;;;100.33;47.38;;;;;;;4.98;86.29;101160.77;1711824;82;21047;-90
2023/01/08 00:51:13;;;;;;;94.20;47.48;;;;;;;5.07;86.31;101171.70;1709190;83;21086;-83
2023/01/08 00:53:40;;;;;;;110.75;51.70;;;;;;;5.09;86.35;101170.06;1712532;82;21162;-84
2023/01/08 00:56:08;;;;;;;116.22;55.12;;;;;;;5.14;86.38;101167.69;1706908;82;21057;-84
2023/01/08 00:58:35;;;;;;;107.35;53.08;;;;;;;5.14;86.34;101163.77;1708745;83;21427;-84
2023/01/08 01:01:04;;;;;;;104.75;51.60;;;;;;;5.16;86.41;101161.75;1709170;83;21549;-91
2023/01/08 01:03:31;;;;;;;111.72;54.73;;;;;;;5.22;86.48;101165.98;1711897;82;21151;-84
2023/01/08 01:06:08;;;;;;;108.07;56.35;;;;;;;5.23;86.47;101165.16;1707347;83;21074;-84
2023/01/08 01:08:35;;;;;;;96.10;51.53;;;;;;;5.29;86.61;101163.27;1714111;82;21054;-92
2023/01/08 01:11:07;;;;;;;100.87;54.18;;;;;;;5.32;86.54;101165.17;1707529;83;21757;-91
2023/01/08 01:13:34;;;;;;;98.85;54.25;;;;;;;5.34;86.67;101159.63;1697594;83;21065;-90
2023/01/08 01:16:02;;;;;;;100.38;55.00;;;;;;;5.42;86.84;101159.60;1710322;83;21085;-91
2023/01/08 01:18:29;;;;;;;100.65;55.52;;;;;;;5.48;86.88;101153.80;1692883;83;21647;-90
2023/01/08 01:20:56;;;;;;;97.92;53.25;;;;;;;5.52;86.87;101151.83;1708739;83;21106;-91
2023/01/08 01:23:22;;;;;;;95.87;52.62;;;;;;;5.55;86.91;101142.86;1696859;82;21754;-91
2023/01/08 01:25:49;;;;;;;89.22;50.52;;;;;;;5.59;86.92;101144.42;1709107;83;21586;-91
2023/01/08 01:28:16;;;;;;;87.95;50.60;;;;;;;5.64;86.90;101136.81;1712441;83;21086;-84
2023/01/08 01:30:45;;;;;;;87.50;49.38;;;;;;;5.67;86.89;101134.36;1705279;83;21454;-85
2023/01/08 01:33:26;;;;;;;83.62;48.28;;;;;;;5.70;86.85;101129.70;1689592;83;21111;-91
2023/01/08 01:36:01;;;;;;;86.37;49.80;;;;;;;5.72;86.82;101124.14;1710830;83;21783;-91
2023/01/08 01:38:29;;;;;;;87.95;50.20;;;;;;;5.75;86.90;101119.97;1712463;83;21057;-91
2023/01/08 01:40:57;;;;;;;90.55;51.00;;;;;;;5.59;86.85;101079.52;1710917;82;21118;-84
2023/01/08 01:43:39;;;;;;;89.50;52.48;;;;;;;5.80;86.81;101109.34;1700551;83;21083;-83
2023/01/08 01:46:23;;;;;;;91.20;50.85;;;;;;;5.84;86.90;101096.92;1704177;83;21076;-83
2023/01/08 01:48:52;;;;;;;92.80;51.20;;;;;;;5.85;86.79;101090.85;1705873;83;21775;-85
2023/01/08 01:51:19;;;;;;;100.72;54.77;;;;;;;5.87;86.72;101087.02;1706112;82;21101;-82
2023/01/08 01:53:46;;;;;;;90.10;50.33;;;;;;;5.88;86.73;101086.63;1709048;82;21067;-82
2023/01/08 01:56:13;;;;;;;96.50;53.90;;;;;;;5.89;86.73;101085.38;1701509;83;21520;-82
2023/01/08 01:58:40;;;;;;;93.97;51.98;;;;;;;5.91;86.77;101082.45;1704365;83;21570;-82
2023/01/08 02:01:07;;;;;;;92.72;51.42;;;;;;;5.94;86.79;101081.70;1702762;82;21805;-84
2023/01/08 02:03:37;;;;;;;93.90;51.95;;;;;;;5.94;86.73;101085.20;1699533;83;21924;-82
2023/01/08 02:06:39;;;;;;;101.85;55.90;;;;;;;5.95;86.67;101081.81;1701870;83;21110;-82
2023/01/08 02:09:41;;;;;;;101.72;53.60;;;;;;;5.94;86.67;101089.12;1705566;83;21139;-82
2023/01/08 02:12:15;;;;;;;90.42;49.45;;;;;;;5.97;86.71;101093.23;1705705;83;21842;-82
2023/01/08 02:15:25;;;;;;;89.20;51.83;;;;;;;5.98;86.67;101087.59;1690470;83;21774;-81
2023/01/08 02:18:15;;;;;;;108.20;56.77;;;;;;;5.99;86.66;101093.31;1700220;83;21540;-81
2023/01/08 02:20:58;;;;;;;97.40;52.55;;;;;;;6.00;86.62;101084.22;1702062;83;21067;-81
2023/01/08 02:23:47;;;;;;;102.20;55.12;;;;;;;6.00;86.64;101085.94;1674060;83;21659;-81
2023/01/08 02:26:24;;;;;;;94.17;50.75;;;;;;;6.02;86.70;101085.60;1700751;83;21072;-82
2023/01/08 02:29:08;;;;;;;96.25;51.85;;;;;;;6.03;86.64;101080.87;1692872;83;21883;-82
2023/01/08 02:31:39;;;;;;;90.80;51.98;;;;;;;6.03;86.55;101079.15;1697518;83;21073;-83
2023/01/08 02:34:07;;;;;;;92.78;51.00;;;;;;;6.03;86.56;101076.95;1686539;83;21106;-85
2023/01/08 02:36:47;;;;;;;88.92;50.20;;;;;;;6.03;86.57;101070.42;1707809;83;21107;-89
2023/01/08 02:39:39;;;;;;;91.60;51.02;;;;;;;6.05;86.61;101074.42;1693005;83;21547;-89
2023/01/08 02:42:25;;;;;;;90.55;50.52;;;;;;;6.07;86.66;101065.83;1709083;83;21848;-89
2023/01/08 02:45:42;;;;;;;87.57;50.83;;;;;;;6.08;86.58;101063.71;1691517;84;21096;-90
2023/01/08 02:48:41;;;;;;;90.03;50.83;;;;;;;6.09;86.62;101058.06;1694140;83;21274;-83
2023/01/08 02:51:20;;;;;;;86.17;47.83;;;;;;;6.08;86.58;101054.56;1697809;84;21168;-85
2023/01/08 02:54:00;;;;;;;86.08;48.52;;;;;;;6.10;86.63;101052.00;1697747;83;21063;-83
2023/01/08 02:56:30;;;;;;;87.92;47.00;;;;;;;6.10;86.62;101054.22;1702801;83;22586;-83
2023/01/08 02:58:58;;;;;;;86.92;46.55;;;;;;;6.10;86.62;101054.22;1680254;84;21077;-84
2023/01/08 03:01:27;;;;;;;86.65;47.00;;;;;;;6.10;86.62;101055.53;1697175;84;21055;-85
2023/01/08 03:04:07;;;;;;;86.37;47.80;;;;;;;6.08;86.55;101052.34;1660094;84;21614;-90
2023/01/08 03:06:36;;;;;;;87.00;45.40;;;;;;;6.08;86.59;101048.03;1674772;84;21637;-90
2023/01/08 03:09:03;;;;;;;83.72;47.55;;;;;;;6.08;86.65;101044.11;1662384;85;22199;-83
2023/01/08 03:11:35;;;;;;;88.00;46.95;;;;;;;6.10;86.65;101041.55;1693222;84;21116;-84
2023/01/08 03:14:23;;;;;;;86.30;47.75;;;;;;;6.13;86.69;101046.93;1688816;83;21532;-84
2023/01/08 03:17:13;;;;;;;79.10;44.18;;;;;;;6.14;86.69;101043.51;1698992;84;21047;-84
2023/01/08 03:20:07;;;;;;;82.05;45.92;;;;;;;6.17;86.67;101043.20;1690438;83;21097;-85
2023/01/08 03:22:38;;;;;;;80.35;47.33;;;;;;;6.18;86.65;101041.09;1676352;84;21790;-83
2023/01/08 03:25:05;;;;;;;84.67;46.25;;;;;;;6.18;86.61;101046.33;1694834;83;21043;-90
2023/01/08 03:27:33;;;;;;;81.72;48.05;;;;;;;6.19;86.59;101046.83;1696007;83;21096;-82
2023/01/08 03:30:00;;;;;;;80.83;44.67;;;;;;;6.20;86.62;101038.56;1691113;83;21378;-89
2023/01/08 03:32:29;;;;;;;75.40;41.02;;;;;;;6.20;86.61;101035.52;1688931;84;21461;-90
2023/01/08 03:34:56;;;;;;;76.25;44.50;;;;;;;6.22;86.64;101039.52;1691080;84;21823;-90
2023/01/08 03:37:28;;;;;;;78.22;44.88;;;;;;;6.20;86.47;101028.98;1688123;83;21091;-90
2023/01/08 03:40:00;;;;;;;83.70;44.33;;;;;;;6.17;86.48;101027.52;1680576;84;21662;-90
2023/01/08 03:42:27;;;;;;;80.80;46.00;;;;;;;6.19;86.49;101024.99;1681358;84;21300;-83
2023/01/08 03:44:53;;;;;;;76.22;42.95;;;;;;;6.19;86.58;101026.30;1697779;83;21075;-89
2023/01/08 03:47:22;;;;;;;75.05;43.98;;;;;;;6.20;86.62;101022.88;1696920;84;21208;-89
2023/01/08 03:49:50;;;;;;;75.50;42.10;;;;;;;6.20;86.56;101032.91;1698124;84;21150;-82
2023/01/08 03:52:25;;;;;;;71.65;42.10;;;;;;;6.22;86.59;101034.30;1689248;84;21045;-91
2023/01/08 03:54:52;;;;;;;74.80;43.58;;;;;;;6.22;86.60;101043.02;1697520;82;21691;-83
2023/01/08 03:57:19;;;;;;;71.50;41.18;;;;;;;6.24;86.60;101036.56;1706860;83;21362;-84
2023/01/08 03:59:46;;;;;;;73.30;42.45;;;;;;;6.25;86.52;101025.30;1710771;83;21780;-84
2023/01/08 04:02:12;;;;;;;69.27;39.50;;;;;;;6.23;86.51;101021.30;1709650;83;21059;-83
2023/01/08 04:04:40;;;;;;;70.75;41.33;;;;;;;6.23;86.56;101021.30;1698916;82;21612;-91
2023/01/08 04:07:10;;;;;;;74.55;41.98;;;;;;;6.25;86.54;101024.00;1709974;83;21135;-89
2023/01/08 04:09:37;;;;;;;72.90;42.08;;;;;;;6.26;86.55;101028.38;1707995;83;21071;-90
2023/01/08 04:12:04;;;;;;;74.25;41.40;;;;;;;6.27;86.58;101036.73;1708295;83;21873;-89
2023/01/08 04:14:31;;;;;;;78.65;43.73;;;;;;;6.27;86.53;101037.11;1730991;82;21107;-91
2023/01/08 04:16:58;;;;;;;70.40;40.48;;;;;;;6.28;86.53;101029.77;1713641;82;21504;-90
2023/01/08 04:19:30;;;;;;;70.72;41.15;;;;;;;6.29;86.50;101025.00;1709261;83;21106;-90
2023/01/08 04:22:03;;;;;;;69.85;40.40;;;;;;;6.28;86.49;101016.27;1710208;82;21653;-91
2023/01/08 04:24:31;;;;;;;65.63;41.17;;;;;;;6.30;86.51;101007.20;1718232;82;22072;-90
2023/01/08 04:26:58;;;;;;;63.28;39.70;;;;;;;6.28;86.41;100999.70;1720223;82;21832;-84
2023/01/08 04:29:25;;;;;;;60.78;38.78;;;;;;;6.26;86.35;100998.73;1708456;83;21040;-84
2023/01/08 04:31:52;;;;;;;66.53;40.03;;;;;;;6.25;86.35;101004.78;1708692;83;21087;-91
2023/01/08 04:34:19;;;;;;;59.83;36.25;;;;;;;6.26;86.37;101010.09;1708267;83;21071;-90
2023/01/08 04:36:46;;;;;;;59.35;36.17;;;;;;;6.25;86.28;101009.62;1716172;82;21770;-83
2023/01/08 04:39:13;;;;;;;58.42;36.13;;;;;;;6.26;86.35;101006.16;1724682;82;21091;-83
2023/01/08 04:41:40;;;;;;;57.67;36.00;;;;;;;6.26;86.24;101001.36;1706989;83;21142;-83
2023/01/08 04:44:08;;;;;;;58.00;36.60;;;;;;;6.26;86.26;100997.44;1708811;83;21584;-83
2023/01/08 04:46:35;;;;;;;56.73;34.73;;;;;;;6.29;86.30;100998.86;1716491;82;21533;-84
2023/01/08 04:49:02;;;;;;;65.32;38.63;;;;;;;6.29;86.26;100988.02;1709087;83;21734;-83
2023/01/08 04:51:30;;;;;;;58.28;35.88;;;;;;;6.28;86.14;100992.75;1710056;83;21077;-83
2023/01/08 04:53:59;;;;;;;58.70;36.08;;;;;;;6.28;86.19;100988.83;1709147;83;21088;-84
2023/01/08 04:56:26;;;;;;;56.68;35.63;;;;;;;6.31;86.20;100983.75;1702613;83;21650;-83
2023/01/08 04:58:53;;;;;;;56.20;34.83;;;;;;;6.30;86.09;100973.22;1701669;83;21062;-83
2023/01/08 05:01:22;;;;;;;61.63;36.68;;;;;;;6.30;86.15;100976.72;1706099;83;21778;-84
2023/01/08 05:03:55;;;;;;;61.10;38.05;;;;;;;6.30;86.09;100969.30;1698821;83;21176;-84
2023/01/08 05:06:22;;;;;;;59.23;36.77;;;;;;;6.31;86.08;100981.56;1699551;83;21139;-91
2023/01/08 05:08:55;;;;;;;57.45;36.70;;;;;;;6.29;86.04;100987.09;1705499;83;21067;-90
2023/01/08 05:11:22;;;;;;;60.85;38.75;;;;;;;6.29;86.18;100986.71;1703956;83;21055;-91
2023/01/08 05:13:49;;;;;;;66.65;41.63;;;;;;;6.29;86.08;100986.71;1698732;83;21810;-84
2023/01/08 05:16:16;;;;;;;59.35;37.70;;;;;;;6.30;86.14;100978.45;1699030;83;21070;-83
2023/01/08 05:18:49;;;;;;;62.65;40.20;;;;;;;6.29;86.06;100970.11;1698403;83;21132;-84
2023/01/08 05:21:16;;;;;;;63.73;40.95;;;;;;;6.25;85.96;100959.95;1706676;83;21066;-84
2023/01/08 05:23:47;;;;;;;64.45;41.05;;;;;;;6.22;86.06;100938.89;1700154;83;21442;-84
2023/01/08 05:26:14;;;;;;;64.07;42.27;;;;;;;6.21;86.07;100930.55;1696940;83;21821;-84
2023/01/08 05:28:42;;;;;;;66.53;43.13;;;;;;;6.17;85.96;100922.98;1708097;83;21051;-84
2023/01/08 05:31:10;;;;;;;71.35;43.70;;;;;;;6.14;86.04;100929.81;1707407;83;21675;-84
2023/01/08 05:33:37;;;;;;;67.92;43.28;;;;;;;6.14;86.22;100928.51;1695887;83;21172;-84
2023/01/08 05:36:07;;;;;;;69.60;44.35;;;;;;;6.18;86.26;100935.23;1702206;83;21065;-84
2023/01/08 05:38:34;;;;;;;72.45;47.13;;;;;;;6.17;86.22;100947.81;1704866;83;21140;-83
2023/01/08 05:41:04;;;;;;;73.65;45.83;;;;;;;6.17;86.26;100941.27;1701824;83;21383;-83
2023/01/08 05:43:31;;;;;;;76.82;46.33;;;;;;;6.20;86.34;100928.36;1704644;83;21067;-83
2023/01/08 05:45:58;;;;;;;70.72;45.50;;;;;;;6.22;86.28;100919.28;1705588;83;21187;-83
2023/01/08 05:48:27;;;;;;;70.20;46.05;;;;;;;6.22;86.18;100914.05;1703424;83;21071;-83
2023/01/08 05:50:53;;;;;;;73.22;46.85;;;;;;;6.20;86.21;100906.14;1704486;83;21238;-90
2023/01/08 05:53:20;;;;;;;78.28;46.92;;;;;;;6.18;86.13;100894.72;1707597;83;21315;-90
2023/01/08 05:55:47;;;;;;;73.15;47.23;;;;;;;6.16;86.11;100887.66;1701175;83;21971;-90
2023/01/08 05:58:17;;;;;;;75.08;47.80;;;;;;;6.14;86.13;100886.27;1697715;83;21084;-91
2023/01/08 06:00:44;;;;;;;75.10;48.68;;;;;;;6.13;86.18;100875.32;1702460;83;21071;-90
2023/01/08 06:03:21;;;;;;;78.55;46.63;;;;;;;6.14;86.21;100869.70;1701201;83;21835;-91
2023/01/08 06:05:48;;;;;;;75.37;47.45;;;;;;;6.14;86.27;100868.40;1705056;83;21050;-91
2023/01/08 06:08:33;;;;;;;72.12;45.67;;;;;;;6.16;86.23;100885.04;1712373;83;21079;-91
2023/01/08 06:11:01;;;;;;;66.20;43.20;;;;;;;6.14;86.16;100883.66;1708048;83;21076;-91
2023/01/08 06:13:28;;;;;;;68.60;44.60;;;;;;;6.16;86.22;100883.31;1709774;83;21103;-90
2023/01/08 06:15:57;;;;;;;70.45;43.87;;;;;;;6.14;86.12;100881.05;1701661;83;22052;-90
2023/01/08 06:18:24;;;;;;;71.15;44.85;;;;;;;6.14;86.02;100874.51;1712180;82;21047;-91
2023/01/08 06:20:51;;;;;;;69.25;45.43;;;;;;;6.12;86.00;100870.94;1699168;83;21550;-84
2023/01/08 06:23:18;;;;;;;73.62;44.98;;;;;;;6.12;86.05;100862.17;1704184;83;21083;-83
2023/01/08 06:25:53;;;;;;;72.78;45.48;;;;;;;6.13;86.05;100852.22;1706348;83;21749;-84
2023/01/08 06:28:20;;;;;;;74.85;46.23;;;;;;;6.13;86.00;100838.73;1707489;83;21882;-84
2023/01/08 06:30:53;;;;;;;70.45;44.77;;;;;;;6.11;85.89;100837.77;1701841;83;21065;-92
2023/01/08 06:33:20;;;;;;;73.47;47.30;;;;;;;6.08;85.84;100851.11;1680312;83;21079;-89
2023/01/08 06:35:47;;;;;;;70.80;45.28;;;;;;;6.07;85.93;100856.77;1712680;83;21052;-90
2023/01/08 06:38:20;;;;;;;73.02;45.83;;;;;;;6.09;85.95;100859.45;1701351;83;21146;-90
2023/01/08 06:40:47;;;;;;;69.45;45.30;;;;;;;6.09;85.88;100855.11;1703332;83;21722;-90
2023/01/08 06:43:16;;;;;;;68.42;43.85;;;;;;;6.09;86.02;100852.49;1697029;83;21093;-85
2023/01/08 06:45:57;;;;;;;65.95;42.27;;;;;;;6.10;85.85;100852.07;1699699;83;21136;-84
2023/01/08 06:48:24;;;;;;;65.83;42.62;;;;;;;6.10;85.76;100850.77;1704696;83;21205;-83
2023/01/08 06:50:52;;;;;;;58.83;37.65;;;;;;;6.09;85.71;100852.49;1703562;83;21078;-83
2023/01/08 06:53:19;;;;;;;67.75;42.35;;;;;;;6.07;85.65;100843.70;1703038;83;21726;-82
2023/01/08 06:55:46;;;;;;;69.77;43.48;;;;;;;6.04;85.53;100840.93;1703317;83;21268;-84
2023/01/08 06:58:13;;;;;;;68.07;43.60;;;;;;;6.00;85.58;100835.98;1710842;83;22170;-85
2023/01/08 07:00:40;;;;;;;73.12;43.87;;;;;;;6.01;85.60;100840.39;1709931;82;21254;-84
2023/01/08 07:03:07;;;;;;;68.67;44.27;;;;;;;6.00;85.58;100849.05;1675664;83;21087;-84
2023/01/08 07:05:35;;;;;;;69.72;44.80;;;;;;;6.01;85.57;100849.96;1708901;83;21132;-93
2023/01/08 07:08:16;;;;;;;68.22;43.10;;;;;;;6.00;85.58;100856.88;1710681;82;21567;-85
2023/01/08 07:10:45;;;;;;;67.45;43.40;;;;;;;6.01;85.61;100856.50;1717419;82;21071;-83
2023/01/08 07:13:12;;;;;;;70.03;43.58;;;;;;;6.01;85.56;100856.50;1709273;82;21567;-84
2023/01/08 07:16:53;;;;;;;66.72;43.30;;;;;;;6.02;85.60;100853.95;1709717;83;21059;-92
2023/01/08 07:19:26;;;;;;;66.55;43.73;;;;;;;6.03;85.50;100853.53;1709161;82;21839;-86
2023/01/08 07:21:54;;;;;;;80.17;47.50;;;;;;;6.05;85.47;100857.53;1709153;82;21069;-87
2023/01/08 07:24:22;;;;;;;67.22;43.48;;;;;;;6.06;85.50;100860.19;1709431;83;21764;-85
2023/01/08 07:26:55;;;;;;;67.00;43.30;;;;;;;6.08;85.45;100857.26;1714247;82;21040;-91
2023/01/08 07:29:26;;;;;;;67.92;42.38;;;;;;;5.96;85.34;100844.52;1688989;83;21119;-85
2023/01/08 07:31:53;;;;;;;73.65;44.70;;;;;;;6.05;85.17;100856.22;1709557;82;21921;-87
2023/01/08 07:34:19;;;;;;;63.68;42.80;;;;;;;6.00;85.17;100849.47;1691380;83;21020;-86
2023/01/08 07:36:47;;;;;;;62.70;41.98;;;;;;;5.99;85.15;100849.00;1710091;82;21698;-85
2023/01/08 07:39:14;;;;;;;76.28;45.60;;;;;;;5.98;85.13;100858.95;1710043;83;21105;-86
2023/01/08 07:41:43;;;;;;;68.92;45.08;;;;;;;5.98;85.13;100856.34;1717755;82;21091;-85
2023/01/08 07:44:11;;;;;;;69.10;44.83;;;;;;;5.97;85.04;100859.38;1709919;83;21791;-86
2023/01/08 07:46:45;;;;;;;65.52;42.17;;;;;;;5.98;85.07;100848.08;1711967;83;21063;-91
2023/01/08 07:49:12;;;;;;;64.58;43.63;;;;;;;6.00;85.10;100846.85;1721460;82;21063;-91
2023/01/08 07:51:50;;;;;;;63.55;41.77;;;;;;;6.02;85.02;100848.73;1718923;82;21067;-91
2023/01/08 07:54:21;;;;;;;60.38;41.65;;;;;;;5.99;84.90;100847.27;1706680;82;21115;-85
2023/01/08 07:56:48;;;;;;;63.17;42.30;;;;;;;5.99;84.84;100846.39;1697394;82;21770;-85
2023/01/08 07:59:17;;;;;;;60.55;42.20;;;;;;;5.97;84.84;100842.81;1710635;82;21320;-85
2023/01/08 08:01:44;;;;;;;61.28;41.98;;;;;;;5.99;84.83;100848.58;1709866;83;22190;-85
2023/01/08 08:04:16;;;;;;;64.15;43.33;;;;;;;5.99;84.75;100845.97;1710533;83;21110;-85
2023/01/08 08:06:43;;;;;;;63.50;43.28;;;;;;;5.98;84.72;100843.28;1709487;82;21053;-88
2023/01/08 08:09:12;;;;;;;61.48;42.17;;;;;;;5.96;84.66;100841.90;1709324;83;21760;-86
2023/01/08 08:11:40;;;;;;;60.45;40.75;;;;;;;5.96;84.61;100839.28;1711134;83;21272;-86
2023/01/08 08:14:09;;;;;;;58.70;41.88;;;;;;;5.94;84.58;100836.98;1658573;83;21057;-93
2023/01/08 08:16:38;;;;;;;60.50;41.95;;;;;;;5.95;84.60;100839.17;1715074;81;21966;-90
2023/01/08 08:19:04;;;;;;;57.70;41.58;;;;;;;5.98;84.65;100839.36;1709094;83;21079;-84
2023/01/08 08:21:31;;;;;;;57.33;41.10;;;;;;;6.01;84.61;100838.20;1710485;83;22985;-87
2023/01/08 08:23:58;;;;;;;56.98;39.92;;;;;;;5.98;84.52;100841.97;1708948;83;21302;-85
2023/01/08 08:26:25;;;;;;;59.65;41.37;;;;;;;5.99;84.55;100839.86;1710370;83;21607;-84
2023/01/08 08:28:53;;;;;;;59.53;40.48;;;;;;;5.99;84.48;100840.74;1714390;81;21048;-85
2023/01/08 08:31:20;;;;;;;58.90;40.58;;;;;;;6.01;84.46;100840.81;1709603;83;21081;-91
2023/01/08 08:34:21;;;;;;;59.90;41.80;;;;;;;6.01;84.39;100823.41;1713082;83;22595;-90
2023/01/08 08:36:57;;;;;;;57.05;39.98;;;;;;;5.93;84.43;100806.48;1714702;83;21064;-91
2023/01/08 08:39:24;;;;;;;57.10;40.17;;;;;;;6.03;84.35;100816.53;1709449;83;21442;-85
2023/01/08 08:41:52;;;;;;;56.80;40.20;;;;;;;6.01;84.33;100815.57;1711396;83;21076;-85
2023/01/08 08:44:26;;;;;;;58.35;42.05;;;;;;;6.02;84.33;100809.92;1711805;83;21081;-85
2023/01/08 08:46:55;;;;;;;56.58;40.23;;;;;;;6.03;84.37;100809.11;1713319;83;21780;-84
2023/01/08 08:49:22;;;;;;;51.42;38.08;;;;;;;6.01;84.26;100804.23;1709342;82;21047;-86
2023/01/08 08:51:49;;;;;;;58.70;39.65;;;;;;;6.01;84.26;100810.77;1713284;83;21103;-86
2023/01/08 08:54:17;;;;;;;53.65;39.55;;;;;;;6.04;84.26;100809.58;1713818;82;21136;-85
2023/01/08 08:56:43;;;;;;;55.12;38.38;;;;;;;6.08;84.27;100800.16;1731904;82;21335;-85
2023/01/08 08:59:13;;;;;;;55.52;37.88;;;;;;;6.13;84.29;100792.11;1727842;82;21810;-87
2023/01/08 09:01:43;;;;;;;56.02;40.17;;;;;;;6.17;84.30;100780.53;1692856;82;21302;-89
2023/01/08 09:04:31;;;;;;;54.83;39.60;;;;;;;6.10;84.13;100763.22;1663385;83;21084;-86
2023/01/08 09:07:01;;;;;;;56.65;38.90;;;;;;;6.21;84.08;100780.25;1700541;82;21087;-84
2023/01/08 09:09:31;;;;;;;58.35;38.38;;;;;;;6.24;84.14;100784.32;1695913;84;21038;-86
2023/01/08 09:11:57;;;;;;;54.70;38.73;;;;;;;6.27;84.07;100779.63;1697367;83;21811;-86
2023/01/08 09:14:25;;;;;;;59.50;39.78;;;;;;;6.32;84.14;100774.19;1698393;82;21064;-84
2023/01/08 09:16:52;;;;;;;55.58;37.40;;;;;;;6.37;83.95;100780.52;1700931;83;21595;-85
2023/01/08 09:19:21;;;;;;;57.62;40.08;;;;;;;6.38;83.85;100775.36;1699619;83;21432;-85
2023/01/08 09:21:50;;;;;;;57.85;38.75;;;;;;;6.39;83.78;100775.81;1669813;84;21123;-90
2023/01/08 09:24:17;;;;;;;55.50;40.00;;;;;;;6.41;83.73;100774.58;1706408;82;21780;-86
2023/01/08 09:26:44;;;;;;;54.20;38.02;;;;;;;6.42;83.75;100770.73;1681915;82;21749;-84
2023/01/08 09:29:11;;;;;;;52.70;38.00;;;;;;;6.47;83.68;100770.02;1703501;82;21141;-83
2023/01/08 09:31:38;;;;;;;56.63;38.85;;;;;;;6.44;83.61;100776.03;1687537;84;21071;-82
2023/01/08 09:34:05;;;;;;;55.88;37.65;;;;;;;6.42;83.51;100771.16;1696419;83;21052;-83
2023/01/08 09:36:33;;;;;;;58.58;39.45;;;;;;;6.36;83.40;100777.41;1685993;82;22521;-85
2023/01/08 09:39:00;;;;;;;53.98;37.85;;;;;;;6.31;83.43;100775.92;1700849;83;21128;-81
2023/01/08 09:41:30;;;;;;;55.80;37.45;;;;;;;6.30;83.45;100766.27;1703814;82;21070;-82
2023/01/08 09:43:57;;;;;;;52.78;35.48;;;;;;;6.30;83.44;100766.27;1698993;82;21659;-83
2023/01/08 09:46:26;;;;;;;59.65;39.08;;;;;;;6.29;83.46;100759.67;1705042;83;21099;-83
2023/01/08 09:48:55;;;;;;;56.45;38.15;;;;;;;6.29;83.47;100758.36;1682034;82;21897;-83
2023/01/08 09:51:31;;;;;;;55.52;37.63;;;;;;;6.30;83.55;100751.89;1696519;83;21142;-81
2023/01/08 09:53:58;;;;;;;57.23;36.38;;;;;;;6.33;83.51;100749.42;1711851;82;21612;-84
2023/01/08 09:56:24;;;;;;;53.23;35.48;;;;;;;6.34;83.44;100747.69;1696672;82;21047;-85
2023/01/08 09:58:55;;;;;;;48.40;33.35;;;;;;;6.35;83.44;100750.80;1702755;83;21563;-83
2023/01/08 10:01:30;;;;;;;49.85;34.75;;;;;;;6.35;83.41;100743.84;1699011;83;21791;-87
2023/01/08 10:04:19;;;;;;;51.55;34.43;;;;;;;6.37;83.40;100741.30;1700118;83;21045;-90
2023/01/08 10:07:21;;;;;;;49.08;34.27;;;;;;;6.40;83.51;100735.78;1726563;82;21031;-89
2023/01/08 10:09:49;;;;;;;50.70;36.13;;;;;;;6.47;83.45;100730.80;1681198;84;21068;-86
2023/01/08 10:12:22;;;;;;;56.83;37.30;;;;;;;6.50;83.39;100734.86;1695447;83;21054;-88
2023/01/08 10:15:22;;;;;;;53.55;37.83;;;;;;;6.49;83.26;100730.02;1708172;83;22506;-88
2023/01/08 10:18:07;;;;;;;56.70;38.60;;;;;;;6.49;83.25;100727.83;1705612;82;21564;-89
2023/01/08 10:20:34;;;;;;;66.15;42.73;;;;;;;6.45;83.15;100726.80;1649335;84;21074;-89
2023/01/08 10:23:19;;;;;;;61.28;41.63;;;;;;;6.42;83.11;100728.02;1671457;84;21151;-87
2023/01/08 10:30:22;;;;;;;72.85;47.08;;;;;;;6.42;83.23;100721.05;1690508;84;21054;-87
2023/01/08 10:34:01;;;;;;;62.27;40.47;;;;;;;6.40;83.13;100716.17;1690041;84;21064;-88
2023/01/08 10:36:46;;;;;;;59.95;37.50;;;;;;;6.27;83.09;100692.06;1691625;84;21087;-88
2023/01/08 10:40:04;;;;;;;56.18;36.75;;;;;;;6.37;83.15;100699.05;1691178;84;21502;-89
2023/01/08 10:46:57;;;;;;;56.80;36.42;;;;;;;6.32;83.12;100694.45;1692074;84;21044;-88
2023/01/08 10:49:45;;;;;;;59.75;38.65;;;;;;;6.36;83.23;100683.29;1691778;84;21028;-88
2023/01/08 10:52:31;;;;;;;65.67;41.28;;;;;;;6.38;83.17;100681.63;1691760;84;21086;-89
2023/01/08 10:55:24;;;;;;;61.20;39.25;;;;;;;6.38;83.20;100677.31;1695770;84;21077;-87
2023/01/08 10:57:56;;;;;;;59.58;37.48;;;;;;;6.41;83.21;100677.84;1694756;83;21297;-86
2023/01/08 11:00:29;;;;;;;51.58;34.55;;;;;;;6.43;83.19;100674.87;1717354;82;21810;-87
2023/01/08 11:02:58;;;;;;;58.40;38.50;;;;;;;6.46;83.21;100673.70;1716561;82;21058;-82
2023/01/08 11:05:34;;;;;;;55.83;36.53;;;;;;;6.46;83.10;100671.08;1696864;83;21052;-84
2023/01/08 11:08:09;;;;;;;53.73;35.90;;;;;;;6.46;83.10;100666.24;1715516;82;21079;-86
2023/01/08 11:10:37;;;;;;;61.55;39.03;;;;;;;6.46;83.07;100661.02;1693921;83;21468;-83
2023/01/08 11:13:06;;;;;;;63.38;41.58;;;;;;;6.46;83.08;100654.09;1713818;82;22495;-82
2023/01/08 11:15:38;;;;;;;59.00;36.83;;;;;;;6.46;83.01;100661.02;1716751;82;21082;-84
2023/01/08 11:18:14;;;;;;;54.42;38.00;;;;;;;6.46;83.07;100661.02;1712176;82;21087;-88
2023/01/08 11:20:41;;;;;;;58.58;38.25;;;;;;;6.47;83.05;100661.51;1705142;82;21058;-86
2023/01/08 11:23:21;;;;;;;57.38;37.33;;;;;;;6.49;83.07;100657.23;1713122;83;21096;-87
2023/01/08 11:26:17;;;;;;;61.05;39.08;;;;;;;6.51;83.02;100660.80;1709829;83;22382;-88
2023/01/08 11:29:17;;;;;;;59.18;36.42;;;;;;;6.52;83.06;100654.75;1704449;83;21077;-87
2023/01/08 11:32:45;;;;;;;;;;;;;;;;;;;;;
2023/01/08 11:35:32;;;;;;;58.35;38.48;;;;;;;6.50;82.96;100642.91;1675819;83;21323;-86
2023/01/08 11:38:23;;;;;;;59.00;38.78;;;;;;;6.50;82.94;100642.03;1711174;82;21115;-86
2023/01/08 11:42:01;;;;;;;55.38;36.25;;;;;;;6.52;83.04;100636.44;1642803;85;22616;-87
2023/01/08 11:45:25;;;;;;;61.30;39.53;;;;;;;6.53;82.94;100633.89;1657324;85;21079;-87
2023/01/08 11:48:49;;;;;;;60.52;39.58;;;;;;;6.51;82.90;100630.30;1680527;84;21121;-89
2023/01/08 11:51:49;;;;;;;60.28;38.53;;;;;;;6.34;82.91;100592.14;1665483;85;21824;-86
2023/01/08 11:55:00;;;;;;;60.23;40.43;;;;;;;6.52;82.93;100616.83;1662160;85;21071;-88